sensor_id;sensor_type;location;lat;lon;timestamp;temperature;humidity
75769;DHT22;64379;48.888;8.330;2024-01-16T00:01:57;0.20;67.50
75769;DHT22;64379;48.888;8.330;2024-01-16T00:04:23;0.20;67.20
75769;DHT22;64379;48.888;8.330;2024-01-16T00:06:49;0.30;67.10
75769;DHT22;64379;48.888;8.330;2024-01-16T00:09:14;0.20;67.00
75769;DHT22;64379;48.888;8.330;2024-01-16T00:11:41;0.30;66.60
75769;DHT22;64379;48.888;8.330;2024-01-16T00:14:06;0.30;66.80
75769;DHT22;64379;48.888;8.330;2024-01-16T00:16:32;0.20;66.80
75769;DHT22;64379;48.888;8.330;2024-01-16T00:18:58;0.30;66.80
75769;DHT22;64379;48.888;8.330;2024-01-16T00:21:23;0.30;66.80
75769;DHT22;64379;48.888;8.330;2024-01-16T00:23:49;0.30;66.70
75769;DHT22;64379;48.888;8.330;2024-01-16T00:26:24;0.20;66.80
75769;DHT22;64379;48.888;8.330;2024-01-16T00:28:49;0.20;67.40
75769;DHT22;64379;48.888;8.330;2024-01-16T00:31:15;0.20;67.10
75769;DHT22;64379;48.888;8.330;2024-01-16T00:33:41;0.20;67.20
75769;DHT22;64379;48.888;8.330;2024-01-16T00:36:06;0.20;67.30
75769;DHT22;64379;48.888;8.330;2024-01-16T00:38:35;0.20;67.10
75769;DHT22;64379;48.888;8.330;2024-01-16T00:41:00;0.20;67.40
75769;DHT22;64379;48.888;8.330;2024-01-16T00:43:26;0.10;67.30
75769;DHT22;64379;48.888;8.330;2024-01-16T00:45:51;0.10;67.30
75769;DHT22;64379;48.888;8.330;2024-01-16T00:48:17;0.10;67.00
75769;DHT22;64379;48.888;8.330;2024-01-16T00:50:44;0.10;67.00
75769;DHT22;64379;48.888;8.330;2024-01-16T00:53:11;0.20;67.10
75769;DHT22;64379;48.888;8.330;2024-01-16T00:55:37;0.20;67.20
75769;DHT22;64379;48.888;8.330;2024-01-16T00:58:03;0.10;67.20
75769;DHT22;64379;48.888;8.330;2024-01-16T01:00:28;0.10;67.10
75769;DHT22;64379;48.888;8.330;2024-01-16T01:02:57;0.00;67.10
75769;DHT22;64379;48.888;8.330;2024-01-16T01:05:24;0.00;67.30
75769;DHT22;64379;48.888;8.330;2024-01-16T01:07:56;0.00;67.20
75769;DHT22;64379;48.888;8.330;2024-01-16T01:10:22;0.00;67.50
75769;DHT22;64379;48.888;8.330;2024-01-16T01:12:48;0.00;67.60
75769;DHT22;64379;48.888;8.330;2024-01-16T01:15:14;0.00;67.50
75769;DHT22;64379;48.888;8.330;2024-01-16T01:17:40;0.00;67.40
75769;DHT22;64379;48.888;8.330;2024-01-16T01:20:09;0.00;67.50
75769;DHT22;64379;48.888;8.330;2024-01-16T01:22:37;0.00;67.30
75769;DHT22;64379;48.888;8.330;2024-01-16T01:25:03;0.00;67.50
75769;DHT22;64379;48.888;8.330;2024-01-16T01:27:29;0.00;67.40
75769;DHT22;64379;48.888;8.330;2024-01-16T01:29:55;0.00;67.30
75769;DHT22;64379;48.888;8.330;2024-01-16T01:32:21;0.00;67.60
75769;DHT22;64379;48.888;8.330;2024-01-16T01:34:47;0.00;67.60
75769;DHT22;64379;48.888;8.330;2024-01-16T01:37:13;0.00;67.50
75769;DHT22;64379;48.888;8.330;2024-01-16T01:39:39;0.00;67.40
75769;DHT22;64379;48.888;8.330;2024-01-16T01:42:05;0.00;67.20
75769;DHT22;64379;48.888;8.330;2024-01-16T01:44:31;0.00;67.00
75769;DHT22;64379;48.888;8.330;2024-01-16T01:46:56;0.00;67.10
75769;DHT22;64379;48.888;8.330;2024-01-16T01:49:23;0.00;67.50
75769;DHT22;64379;48.888;8.330;2024-01-16T01:51:49;0.00;67.40
75769;DHT22;64379;48.888;8.330;2024-01-16T01:54:15;-0.10;67.20
75769;DHT22;64379;48.888;8.330;2024-01-16T01:56:44;-0.10;67.40
75769;DHT22;64379;48.888;8.330;2024-01-16T01:59:10;-0.10;67.30
75769;DHT22;64379;48.888;8.330;2024-01-16T02:01:36;-0.10;67.30
75769;DHT22;64379;48.888;8.330;2024-01-16T02:04:04;-0.10;67.60
75769;DHT22;64379;48.888;8.330;2024-01-16T02:06:31;-0.20;67.50
75769;DHT22;64379;48.888;8.330;2024-01-16T02:08:58;-0.20;67.60
75769;DHT22;64379;48.888;8.330;2024-01-16T02:11:24;-0.20;67.20
75769;DHT22;64379;48.888;8.330;2024-01-16T02:13:50;-0.20;67.40
75769;DHT22;64379;48.888;8.330;2024-01-16T02:16:23;-0.20;67.40
75769;DHT22;64379;48.888;8.330;2024-01-16T02:18:50;-0.20;67.60
75769;DHT22;64379;48.888;8.330;2024-01-16T02:21:21;-0.20;67.60
75769;DHT22;64379;48.888;8.330;2024-01-16T02:23:47;-0.20;67.50
75769;DHT22;64379;48.888;8.330;2024-01-16T02:26:14;-0.30;67.70
75769;DHT22;64379;48.888;8.330;2024-01-16T02:28:41;-0.30;67.80
75769;DHT22;64379;48.888;8.330;2024-01-16T02:31:07;-0.30;68.00
75769;DHT22;64379;48.888;8.330;2024-01-16T02:33:33;-0.40;67.90
75769;DHT22;64379;48.888;8.330;2024-01-16T02:35:59;-0.40;68.10
75769;DHT22;64379;48.888;8.330;2024-01-16T02:38:24;-0.40;68.10
75769;DHT22;64379;48.888;8.330;2024-01-16T02:40:50;-0.50;68.10
75769;DHT22;64379;48.888;8.330;2024-01-16T02:43:16;-0.50;68.30
75769;DHT22;64379;48.888;8.330;2024-01-16T02:45:42;-0.50;68.30
75769;DHT22;64379;48.888;8.330;2024-01-16T02:48:08;-0.60;68.60
75769;DHT22;64379;48.888;8.330;2024-01-16T02:50:33;-0.60;68.50
75769;DHT22;64379;48.888;8.330;2024-01-16T02:52:59;-0.70;68.40
75769;DHT22;64379;48.888;8.330;2024-01-16T02:55:25;-0.70;68.50
75769;DHT22;64379;48.888;8.330;2024-01-16T02:57:50;-0.70;68.50
75769;DHT22;64379;48.888;8.330;2024-01-16T03:00:16;-0.70;68.30
75769;DHT22;64379;48.888;8.330;2024-01-16T03:02:43;-0.70;68.20
75769;DHT22;64379;48.888;8.330;2024-01-16T03:05:09;-0.80;68.20
75769;DHT22;64379;48.888;8.330;2024-01-16T03:07:36;-0.90;68.20
75769;DHT22;64379;48.888;8.330;2024-01-16T03:10:02;-0.90;68.40
75769;DHT22;64379;48.888;8.330;2024-01-16T03:12:28;-1.00;68.40
75769;DHT22;64379;48.888;8.330;2024-01-16T03:14:54;-1.00;68.40
75769;DHT22;64379;48.888;8.330;2024-01-16T03:17:19;-1.10;68.40
75769;DHT22;64379;48.888;8.330;2024-01-16T03:19:45;-1.10;68.50
75769;DHT22;64379;48.888;8.330;2024-01-16T03:22:10;-1.10;68.70
75769;DHT22;64379;48.888;8.330;2024-01-16T03:24:36;-1.20;68.90
75769;DHT22;64379;48.888;8.330;2024-01-16T03:27:02;-1.20;68.90
75769;DHT22;64379;48.888;8.330;2024-01-16T03:29:27;-1.30;69.00
75769;DHT22;64379;48.888;8.330;2024-01-16T03:31:53;-1.30;69.20
75769;DHT22;64379;48.888;8.330;2024-01-16T03:34:19;-1.40;69.30
75769;DHT22;64379;48.888;8.330;2024-01-16T03:36:44;-1.50;69.30
75769;DHT22;64379;48.888;8.330;2024-01-16T03:39:10;-1.50;69.50
75769;DHT22;64379;48.888;8.330;2024-01-16T03:41:37;-1.50;69.70
75769;DHT22;64379;48.888;8.330;2024-01-16T03:44:03;-1.60;69.80
75769;DHT22;64379;48.888;8.330;2024-01-16T03:46:28;-1.70;70.20
75769;DHT22;64379;48.888;8.330;2024-01-16T03:48:54;-1.70;70.30
75769;DHT22;64379;48.888;8.330;2024-01-16T03:51:20;-1.80;70.50
75769;DHT22;64379;48.888;8.330;2024-01-16T03:53:46;-1.80;70.70
75769;DHT22;64379;48.888;8.330;2024-01-16T03:56:11;-1.80;70.70
75769;DHT22;64379;48.888;8.330;2024-01-16T03:58:37;-1.70;70.60
75769;DHT22;64379;48.888;8.330;2024-01-16T04:01:03;-1.80;70.70
75769;DHT22;64379;48.888;8.330;2024-01-16T04:03:29;-1.80;70.70
75769;DHT22;64379;48.888;8.330;2024-01-16T04:05:54;-1.90;70.90
75769;DHT22;64379;48.888;8.330;2024-01-16T04:08:20;-1.90;71.00
75769;DHT22;64379;48.888;8.330;2024-01-16T04:10:46;-1.90;71.00
75769;DHT22;64379;48.888;8.330;2024-01-16T04:13:11;-2.00;71.10
75769;DHT22;64379;48.888;8.330;2024-01-16T04:15:40;-2.10;71.30
75769;DHT22;64379;48.888;8.330;2024-01-16T04:18:06;-2.00;71.20
75769;DHT22;64379;48.888;8.330;2024-01-16T04:20:32;-2.00;71.20
75769;DHT22;64379;48.888;8.330;2024-01-16T04:22:57;-1.90;71.10
75769;DHT22;64379;48.888;8.330;2024-01-16T04:25:23;-1.90;70.80
75769;DHT22;64379;48.888;8.330;2024-01-16T04:27:49;-1.80;70.80
75769;DHT22;64379;48.888;8.330;2024-01-16T04:30:16;-2.00;71.10
75769;DHT22;64379;48.888;8.330;2024-01-16T04:32:41;-2.10;71.40
75769;DHT22;64379;48.888;8.330;2024-01-16T04:35:07;-2.10;71.30
75769;DHT22;64379;48.888;8.330;2024-01-16T04:37:33;-2.10;71.30
75769;DHT22;64379;48.888;8.330;2024-01-16T04:39:58;-2.10;71.40
75769;DHT22;64379;48.888;8.330;2024-01-16T04:42:25;-2.10;71.30
75769;DHT22;64379;48.888;8.330;2024-01-16T04:44:50;-2.10;71.20
75769;DHT22;64379;48.888;8.330;2024-01-16T04:47:16;-2.20;71.50
75769;DHT22;64379;48.888;8.330;2024-01-16T04:49:42;-2.20;71.80
75769;DHT22;64379;48.888;8.330;2024-01-16T04:52:08;-2.30;72.00
75769;DHT22;64379;48.888;8.330;2024-01-16T04:54:34;-2.30;72.00
75769;DHT22;64379;48.888;8.330;2024-01-16T04:56:59;-2.30;71.80
75769;DHT22;64379;48.888;8.330;2024-01-16T04:59:25;-2.30;71.80
75769;DHT22;64379;48.888;8.330;2024-01-16T05:01:51;-2.40;71.90
75769;DHT22;64379;48.888;8.330;2024-01-16T05:04:17;-2.50;72.20
75769;DHT22;64379;48.888;8.330;2024-01-16T05:06:43;-2.50;72.40
75769;DHT22;64379;48.888;8.330;2024-01-16T05:09:08;-2.50;72.50
75769;DHT22;64379;48.888;8.330;2024-01-16T05:11:37;-2.60;72.50
75769;DHT22;64379;48.888;8.330;2024-01-16T05:14:03;-2.70;72.70
75769;DHT22;64379;48.888;8.330;2024-01-16T05:16:28;-2.70;72.90
75769;DHT22;64379;48.888;8.330;2024-01-16T05:18:54;-2.80;73.10
75769;DHT22;64379;48.888;8.330;2024-01-16T05:21:20;-2.80;73.40
75769;DHT22;64379;48.888;8.330;2024-01-16T05:23:46;-2.80;73.40
75769;DHT22;64379;48.888;8.330;2024-01-16T05:26:12;-2.80;73.60
75769;DHT22;64379;48.888;8.330;2024-01-16T05:28:39;-2.80;73.80
75769;DHT22;64379;48.888;8.330;2024-01-16T05:31:04;-2.80;73.90
75769;DHT22;64379;48.888;8.330;2024-01-16T05:33:30;-2.70;73.90
75769;DHT22;64379;48.888;8.330;2024-01-16T05:35:57;-2.60;73.60
75769;DHT22;64379;48.888;8.330;2024-01-16T05:38:22;-2.50;73.30
75769;DHT22;64379;48.888;8.330;2024-01-16T05:40:48;-2.50;73.20
75769;DHT22;64379;48.888;8.330;2024-01-16T05:43:14;-2.50;73.00
75769;DHT22;64379;48.888;8.330;2024-01-16T05:45:40;-2.50;73.00
75769;DHT22;64379;48.888;8.330;2024-01-16T05:48:06;-2.50;73.00
75769;DHT22;64379;48.888;8.330;2024-01-16T05:50:36;-2.60;73.30
75769;DHT22;64379;48.888;8.330;2024-01-16T05:53:02;-2.60;73.60
75769;DHT22;64379;48.888;8.330;2024-01-16T05:55:27;-2.60;73.60
75769;DHT22;64379;48.888;8.330;2024-01-16T05:57:54;-2.50;73.70
75769;DHT22;64379;48.888;8.330;2024-01-16T06:00:19;-2.50;73.70
75769;DHT22;64379;48.888;8.330;2024-01-16T06:02:48;-2.50;73.80
75769;DHT22;64379;48.888;8.330;2024-01-16T06:05:13;-2.50;73.80
75769;DHT22;64379;48.888;8.330;2024-01-16T06:07:39;-2.50;73.50
75769;DHT22;64379;48.888;8.330;2024-01-16T06:10:05;-2.40;73.40
75769;DHT22;64379;48.888;8.330;2024-01-16T06:12:31;-2.40;73.40
75769;DHT22;64379;48.888;8.330;2024-01-16T06:14:57;-2.40;73.40
75769;DHT22;64379;48.888;8.330;2024-01-16T06:17:23;-2.40;73.40
75769;DHT22;64379;48.888;8.330;2024-01-16T06:19:48;-2.40;73.40
75769;DHT22;64379;48.888;8.330;2024-01-16T06:22:14;-2.40;73.40
75769;DHT22;64379;48.888;8.330;2024-01-16T06:24:40;-2.30;73.50
75769;DHT22;64379;48.888;8.330;2024-01-16T06:27:05;-2.30;73.40
75769;DHT22;64379;48.888;8.330;2024-01-16T06:29:34;-2.30;73.40
75769;DHT22;64379;48.888;8.330;2024-01-16T06:32:00;-2.20;73.40
75769;DHT22;64379;48.888;8.330;2024-01-16T06:34:27;-2.20;73.30
75769;DHT22;64379;48.888;8.330;2024-01-16T06:36:52;-2.20;73.30
75769;DHT22;64379;48.888;8.330;2024-01-16T06:39:18;-2.20;73.30
75769;DHT22;64379;48.888;8.330;2024-01-16T06:41:43;-2.20;73.20
75769;DHT22;64379;48.888;8.330;2024-01-16T06:44:09;-2.20;73.20
75769;DHT22;64379;48.888;8.330;2024-01-16T06:46:35;-2.10;73.10
75769;DHT22;64379;48.888;8.330;2024-01-16T06:49:00;-2.10;73.20
75769;DHT22;64379;48.888;8.330;2024-01-16T06:51:27;-2.10;73.10
75769;DHT22;64379;48.888;8.330;2024-01-16T06:53:52;-2.10;73.00
75769;DHT22;64379;48.888;8.330;2024-01-16T06:56:18;-2.10;73.00
75769;DHT22;64379;48.888;8.330;2024-01-16T06:58:43;-2.10;73.00
75769;DHT22;64379;48.888;8.330;2024-01-16T07:01:09;-2.10;73.10
75769;DHT22;64379;48.888;8.330;2024-01-16T07:03:35;-2.00;72.70
75769;DHT22;64379;48.888;8.330;2024-01-16T07:06:01;-1.90;72.50
75769;DHT22;64379;48.888;8.330;2024-01-16T07:08:28;-1.90;72.50
75769;DHT22;64379;48.888;8.330;2024-01-16T07:10:53;-1.90;72.30
75769;DHT22;64379;48.888;8.330;2024-01-16T07:13:19;-1.90;72.20
75769;DHT22;64379;48.888;8.330;2024-01-16T07:15:45;-1.90;72.10
75769;DHT22;64379;48.888;8.330;2024-01-16T07:18:10;-1.90;72.10
75769;DHT22;64379;48.888;8.330;2024-01-16T07:20:36;-1.90;72.10
75769;DHT22;64379;48.888;8.330;2024-01-16T07:23:02;-1.90;72.30
75769;DHT22;64379;48.888;8.330;2024-01-16T07:25:28;-1.90;72.30
75769;DHT22;64379;48.888;8.330;2024-01-16T07:27:53;-1.90;72.20
75769;DHT22;64379;48.888;8.330;2024-01-16T07:30:19;-1.90;72.20
75769;DHT22;64379;48.888;8.330;2024-01-16T07:32:45;-1.90;72.10
75769;DHT22;64379;48.888;8.330;2024-01-16T07:35:10;-1.80;72.10
75769;DHT22;64379;48.888;8.330;2024-01-16T07:37:36;-1.80;72.10
75769;DHT22;64379;48.888;8.330;2024-01-16T07:40:02;-1.70;72.20
75769;DHT22;64379;48.888;8.330;2024-01-16T07:42:31;-1.70;72.00
75769;DHT22;64379;48.888;8.330;2024-01-16T07:45:05;-1.60;71.80
75769;DHT22;64379;48.888;8.330;2024-01-16T07:47:31;-1.60;71.90
75769;DHT22;64379;48.888;8.330;2024-01-16T07:49:58;-1.50;71.80
75769;DHT22;64379;48.888;8.330;2024-01-16T07:52:24;-1.50;71.80
75769;DHT22;64379;48.888;8.330;2024-01-16T07:54:50;-1.60;71.70
75769;DHT22;64379;48.888;8.330;2024-01-16T07:57:15;-1.50;71.70
75769;DHT22;64379;48.888;8.330;2024-01-16T07:59:41;-1.50;71.70
75769;DHT22;64379;48.888;8.330;2024-01-16T08:02:07;-1.50;72.00
75769;DHT22;64379;48.888;8.330;2024-01-16T08:04:34;-1.50;72.30
75769;DHT22;64379;48.888;8.330;2024-01-16T08:06:59;-1.50;72.10
75769;DHT22;64379;48.888;8.330;2024-01-16T08:09:25;-1.40;71.90
75769;DHT22;64379;48.888;8.330;2024-01-16T08:11:50;-1.40;71.70
75769;DHT22;64379;48.888;8.330;2024-01-16T08:14:16;-1.40;71.60
75769;DHT22;64379;48.888;8.330;2024-01-16T08:16:41;-1.50;71.90
75769;DHT22;64379;48.888;8.330;2024-01-16T08:19:07;-1.40;71.90
75769;DHT22;64379;48.888;8.330;2024-01-16T08:21:33;-1.40;71.80
75769;DHT22;64379;48.888;8.330;2024-01-16T08:23:58;-1.30;71.70
75769;DHT22;64379;48.888;8.330;2024-01-16T08:26:24;-1.30;71.60
75769;DHT22;64379;48.888;8.330;2024-01-16T08:28:50;-1.30;71.90
75769;DHT22;64379;48.888;8.330;2024-01-16T08:31:19;-1.20;71.70
75769;DHT22;64379;48.888;8.330;2024-01-16T08:33:45;-1.10;71.40
75769;DHT22;64379;48.888;8.330;2024-01-16T08:36:11;-1.10;71.30
75769;DHT22;64379;48.888;8.330;2024-01-16T08:38:37;-1.10;71.00
75769;DHT22;64379;48.888;8.330;2024-01-16T08:41:02;-1.10;71.00
75769;DHT22;64379;48.888;8.330;2024-01-16T08:43:34;-0.90;71.00
75769;DHT22;64379;48.888;8.330;2024-01-16T08:46:00;-0.70;70.30
75769;DHT22;64379;48.888;8.330;2024-01-16T08:48:26;-0.70;69.80
75769;DHT22;64379;48.888;8.330;2024-01-16T08:50:52;-0.70;70.00
75769;DHT22;64379;48.888;8.330;2024-01-16T08:53:19;-0.70;69.60
75769;DHT22;64379;48.888;8.330;2024-01-16T08:55:45;-0.70;69.80
75769;DHT22;64379;48.888;8.330;2024-01-16T08:58:11;-0.70;70.20
75769;DHT22;64379;48.888;8.330;2024-01-16T09:00:36;-0.70;70.10
75769;DHT22;64379;48.888;8.330;2024-01-16T09:03:03;-0.60;70.00
75769;DHT22;64379;48.888;8.330;2024-01-16T09:05:29;-0.70;69.80
75769;DHT22;64379;48.888;8.330;2024-01-16T09:07:55;-0.50;69.70
75769;DHT22;64379;48.888;8.330;2024-01-16T09:10:20;-0.40;69.20
75769;DHT22;64379;48.888;8.330;2024-01-16T09:12:47;-0.50;69.10
75769;DHT22;64379;48.888;8.330;2024-01-16T09:15:14;-0.30;69.00
75769;DHT22;64379;48.888;8.330;2024-01-16T09:17:39;-0.10;68.40
75769;DHT22;64379;48.888;8.330;2024-01-16T09:20:06;-0.30;68.20
75769;DHT22;64379;48.888;8.330;2024-01-16T09:22:32;-0.20;68.20
75769;DHT22;64379;48.888;8.330;2024-01-16T09:24:58;-0.10;68.30
75769;DHT22;64379;48.888;8.330;2024-01-16T09:27:23;-0.10;68.30
75769;DHT22;64379;48.888;8.330;2024-01-16T09:29:49;-0.10;68.00
75769;DHT22;64379;48.888;8.330;2024-01-16T09:32:14;0.00;68.00
75769;DHT22;64379;48.888;8.330;2024-01-16T09:34:40;0.30;67.30
75769;DHT22;64379;48.888;8.330;2024-01-16T09:37:06;0.40;66.10
75769;DHT22;64379;48.888;8.330;2024-01-16T09:39:31;0.60;65.90
75769;DHT22;64379;48.888;8.330;2024-01-16T09:42:00;0.40;66.20
75769;DHT22;64379;48.888;8.330;2024-01-16T09:44:29;0.40;66.50
75769;DHT22;64379;48.888;8.330;2024-01-16T09:46:55;0.30;66.50
75769;DHT22;64379;48.888;8.330;2024-01-16T09:49:23;0.60;66.20
75769;DHT22;64379;48.888;8.330;2024-01-16T09:51:49;0.60;66.00
75769;DHT22;64379;48.888;8.330;2024-01-16T09:54:15;0.80;65.90
75769;DHT22;64379;48.888;8.330;2024-01-16T09:56:44;1.00;64.90
75769;DHT22;64379;48.888;8.330;2024-01-16T09:59:13;1.10;64.80
75769;DHT22;64379;48.888;8.330;2024-01-16T10:01:40;1.40;63.20
75769;DHT22;64379;48.888;8.330;2024-01-16T10:04:06;1.30;63.70
75769;DHT22;64379;48.888;8.330;2024-01-16T10:06:33;1.00;64.20
75769;DHT22;64379;48.888;8.330;2024-01-16T10:09:00;1.00;64.50
75769;DHT22;64379;48.888;8.330;2024-01-16T10:11:25;1.20;64.10
75769;DHT22;64379;48.888;8.330;2024-01-16T10:13:51;1.40;63.60
75769;DHT22;64379;48.888;8.330;2024-01-16T10:16:17;1.40;63.90
75769;DHT22;64379;48.888;8.330;2024-01-16T10:18:42;1.40;63.70
75769;DHT22;64379;48.888;8.330;2024-01-16T10:21:22;1.20;63.90
75769;DHT22;64379;48.888;8.330;2024-01-16T10:23:49;1.00;63.80
75769;DHT22;64379;48.888;8.330;2024-01-16T10:26:14;1.00;63.90
75769;DHT22;64379;48.888;8.330;2024-01-16T10:28:42;1.00;63.00
75769;DHT22;64379;48.888;8.330;2024-01-16T10:31:09;0.90;63.30
75769;DHT22;64379;48.888;8.330;2024-01-16T10:33:35;0.60;64.40
75769;DHT22;64379;48.888;8.330;2024-01-16T10:38:42;0.60;65.40
75769;DHT22;64379;48.888;8.330;2024-01-16T10:41:16;0.60;65.10
75769;DHT22;64379;48.888;8.330;2024-01-16T10:44:06;0.50;64.30
75769;DHT22;64379;48.888;8.330;2024-01-16T10:46:35;0.80;64.40
75769;DHT22;64379;48.888;8.330;2024-01-16T10:49:05;1.00;63.70
75769;DHT22;64379;48.888;8.330;2024-01-16T10:51:31;1.00;63.20
75769;DHT22;64379;48.888;8.330;2024-01-16T10:54:04;1.10;63.10
75769;DHT22;64379;48.888;8.330;2024-01-16T10:56:34;1.00;63.30
75769;DHT22;64379;48.888;8.330;2024-01-16T10:59:16;1.00;63.60
75769;DHT22;64379;48.888;8.330;2024-01-16T11:01:45;1.10;63.80
75769;DHT22;64379;48.888;8.330;2024-01-16T11:04:14;1.40;62.90
75769;DHT22;64379;48.888;8.330;2024-01-16T11:06:41;1.70;62.00
75769;DHT22;64379;48.888;8.330;2024-01-16T11:09:08;1.70;61.80
75769;DHT22;64379;48.888;8.330;2024-01-16T11:11:34;2.00;60.80
75769;DHT22;64379;48.888;8.330;2024-01-16T11:14:03;2.00;59.70
75769;DHT22;64379;48.888;8.330;2024-01-16T11:16:32;2.50;58.90
75769;DHT22;64379;48.888;8.330;2024-01-16T11:18:57;2.90;58.50
75769;DHT22;64379;48.888;8.330;2024-01-16T11:21:24;3.10;56.50
75769;DHT22;64379;48.888;8.330;2024-01-16T11:23:50;2.90;57.60
75769;DHT22;64379;48.888;8.330;2024-01-16T11:26:29;3.40;56.00
75769;DHT22;64379;48.888;8.330;2024-01-16T11:28:59;3.30;55.20
75769;DHT22;64379;48.888;8.330;2024-01-16T11:31:32;3.60;54.70
75769;DHT22;64379;48.888;8.330;2024-01-16T11:34:00;3.90;53.90
75769;DHT22;64379;48.888;8.330;2024-01-16T11:39:21;4.10;51.30
75769;DHT22;64379;48.888;8.330;2024-01-16T11:41:57;3.50;53.00
75769;DHT22;64379;48.888;8.330;2024-01-16T11:44:49;2.90;53.80
75769;DHT22;64379;48.888;8.330;2024-01-16T11:47:21;3.00;54.00
75769;DHT22;64379;48.888;8.330;2024-01-16T11:49:47;3.60;53.00
75769;DHT22;64379;48.888;8.330;2024-01-16T11:52:14;4.20;52.20
75769;DHT22;64379;48.888;8.330;2024-01-16T11:54:41;4.70;50.40
75769;DHT22;64379;48.888;8.330;2024-01-16T12:00:27;4.50;49.40
75769;DHT22;64379;48.888;8.330;2024-01-16T12:02:56;3.80;50.90
75769;DHT22;64379;48.888;8.330;2024-01-16T12:05:22;3.50;51.50
75769;DHT22;64379;48.888;8.330;2024-01-16T12:07:51;3.10;52.50
75769;DHT22;64379;48.888;8.330;2024-01-16T12:10:22;3.40;52.80
75769;DHT22;64379;48.888;8.330;2024-01-16T12:12:49;3.60;52.40
75769;DHT22;64379;48.888;8.330;2024-01-16T12:15:19;3.80;52.00
75769;DHT22;64379;48.888;8.330;2024-01-16T12:17:57;4.00;50.80
75769;DHT22;64379;48.888;8.330;2024-01-16T12:20:24;4.20;51.10
75769;DHT22;64379;48.888;8.330;2024-01-16T12:23:08;3.90;50.70
75769;DHT22;64379;48.888;8.330;2024-01-16T12:25:36;3.80;52.10
75769;DHT22;64379;48.888;8.330;2024-01-16T12:28:06;3.70;51.30
75769;DHT22;64379;48.888;8.330;2024-01-16T12:30:34;3.90;51.50
75769;DHT22;64379;48.888;8.330;2024-01-16T12:35:35;4.30;51.20
75769;DHT22;64379;48.888;8.330;2024-01-16T12:38:05;5.30;49.40
75769;DHT22;64379;48.888;8.330;2024-01-16T12:40:32;6.00;47.50
75769;DHT22;64379;48.888;8.330;2024-01-16T12:42:58;6.30;47.00
75769;DHT22;64379;48.888;8.330;2024-01-16T12:45:23;6.50;46.00
75769;DHT22;64379;48.888;8.330;2024-01-16T12:47:53;6.40;46.00
75769;DHT22;64379;48.888;8.330;2024-01-16T12:50:20;6.20;46.00
75769;DHT22;64379;48.888;8.330;2024-01-16T12:52:46;6.70;45.30
75769;DHT22;64379;48.888;8.330;2024-01-16T12:55:13;6.80;44.40
75769;DHT22;64379;48.888;8.330;2024-01-16T12:57:39;6.90;44.80
75769;DHT22;64379;48.888;8.330;2024-01-16T13:00:22;6.00;46.20
75769;DHT22;64379;48.888;8.330;2024-01-16T13:02:52;6.10;46.50
75769;DHT22;64379;48.888;8.330;2024-01-16T13:05:18;5.90;46.50
75769;DHT22;64379;48.888;8.330;2024-01-16T13:07:44;6.90;44.40
75769;DHT22;64379;48.888;8.330;2024-01-16T13:10:11;6.30;46.40
75769;DHT22;64379;48.888;8.330;2024-01-16T13:12:37;6.50;44.70
75769;DHT22;64379;48.888;8.330;2024-01-16T13:15:04;6.60;45.00
75769;DHT22;64379;48.888;8.330;2024-01-16T13:17:34;7.60;43.70
75769;DHT22;64379;48.888;8.330;2024-01-16T13:20:00;7.50;42.20
75769;DHT22;64379;48.888;8.330;2024-01-16T13:22:26;5.80;44.00
75769;DHT22;64379;48.888;8.330;2024-01-16T13:24:52;4.30;48.20
75769;DHT22;64379;48.888;8.330;2024-01-16T13:27:17;4.90;47.00
75769;DHT22;64379;48.888;8.330;2024-01-16T13:29:44;5.30;47.10
75769;DHT22;64379;48.888;8.330;2024-01-16T13:32:10;5.50;46.40
75769;DHT22;64379;48.888;8.330;2024-01-16T13:34:36;5.60;45.50
75769;DHT22;64379;48.888;8.330;2024-01-16T13:37:03;4.70;46.40
75769;DHT22;64379;48.888;8.330;2024-01-16T13:39:29;4.30;46.50
75769;DHT22;64379;48.888;8.330;2024-01-16T13:42:01;4.70;47.60
75769;DHT22;64379;48.888;8.330;2024-01-16T13:44:31;5.50;45.90
75769;DHT22;64379;48.888;8.330;2024-01-16T13:46:56;6.20;44.90
75769;DHT22;64379;48.888;8.330;2024-01-16T13:49:22;6.40;44.20
75769;DHT22;64379;48.888;8.330;2024-01-16T13:51:47;5.70;43.50
75769;DHT22;64379;48.888;8.330;2024-01-16T13:54:14;5.60;44.80
75769;DHT22;64379;48.888;8.330;2024-01-16T13:56:41;5.60;44.70
75769;DHT22;64379;48.888;8.330;2024-01-16T13:59:08;5.30;44.50
75769;DHT22;64379;48.888;8.330;2024-01-16T14:01:33;5.10;45.10
75769;DHT22;64379;48.888;8.330;2024-01-16T14:03:59;5.00;45.30
75769;DHT22;64379;48.888;8.330;2024-01-16T14:06:25;4.90;45.90
75769;DHT22;64379;48.888;8.330;2024-01-16T14:08:50;4.70;45.80
75769;DHT22;64379;48.888;8.330;2024-01-16T14:11:16;4.50;46.50
75769;DHT22;64379;48.888;8.330;2024-01-16T14:13:42;4.30;47.00
75769;DHT22;64379;48.888;8.330;2024-01-16T14:16:08;4.40;46.90
75769;DHT22;64379;48.888;8.330;2024-01-16T14:18:34;4.40;46.80
75769;DHT22;64379;48.888;8.330;2024-01-16T14:21:00;4.50;46.30
75769;DHT22;64379;48.888;8.330;2024-01-16T14:23:25;4.50;47.00
75769;DHT22;64379;48.888;8.330;2024-01-16T14:25:51;4.00;47.80
75769;DHT22;64379;48.888;8.330;2024-01-16T14:28:16;3.90;49.40
75769;DHT22;64379;48.888;8.330;2024-01-16T14:30:42;3.30;51.20
75769;DHT22;64379;48.888;8.330;2024-01-16T14:33:08;3.10;51.30
75769;DHT22;64379;48.888;8.330;2024-01-16T14:35:34;3.50;51.50
75769;DHT22;64379;48.888;8.330;2024-01-16T14:37:59;3.80;50.90
75769;DHT22;64379;48.888;8.330;2024-01-16T14:40:25;3.70;51.20
75769;DHT22;64379;48.888;8.330;2024-01-16T14:42:55;3.70;50.50
75769;DHT22;64379;48.888;8.330;2024-01-16T14:45:23;3.60;50.60
75769;DHT22;64379;48.888;8.330;2024-01-16T14:47:49;3.70;51.20
75769;DHT22;64379;48.888;8.330;2024-01-16T14:50:17;3.30;51.00
75769;DHT22;64379;48.888;8.330;2024-01-16T14:52:49;2.80;52.00
75769;DHT22;64379;48.888;8.330;2024-01-16T14:55:15;2.60;53.60
75769;DHT22;64379;48.888;8.330;2024-01-16T14:57:41;2.70;52.90
75769;DHT22;64379;48.888;8.330;2024-01-16T15:00:11;2.40;53.20
75769;DHT22;64379;48.888;8.330;2024-01-16T15:02:49;2.10;54.10
75769;DHT22;64379;48.888;8.330;2024-01-16T15:05:15;1.90;54.40
75769;DHT22;64379;48.888;8.330;2024-01-16T15:07:42;1.80;54.80
75769;DHT22;64379;48.888;8.330;2024-01-16T15:10:09;1.70;55.30
75769;DHT22;64379;48.888;8.330;2024-01-16T15:12:35;1.60;55.30
75769;DHT22;64379;48.888;8.330;2024-01-16T15:15:01;1.60;56.20
75769;DHT22;64379;48.888;8.330;2024-01-16T15:17:29;1.70;56.50
75769;DHT22;64379;48.888;8.330;2024-01-16T15:19:54;1.60;56.20
75769;DHT22;64379;48.888;8.330;2024-01-16T15:22:20;1.50;56.80
75769;DHT22;64379;48.888;8.330;2024-01-16T15:24:46;1.40;57.20
75769;DHT22;64379;48.888;8.330;2024-01-16T15:27:13;1.40;57.00
75769;DHT22;64379;48.888;8.330;2024-01-16T15:29:38;1.40;57.10
75769;DHT22;64379;48.888;8.330;2024-01-16T15:32:04;1.40;56.90
75769;DHT22;64379;48.888;8.330;2024-01-16T15:34:30;1.40;57.50
75769;DHT22;64379;48.888;8.330;2024-01-16T15:36:56;1.30;58.00
75769;DHT22;64379;48.888;8.330;2024-01-16T15:39:23;1.20;57.20
75769;DHT22;64379;48.888;8.330;2024-01-16T15:41:48;1.10;57.10
75769;DHT22;64379;48.888;8.330;2024-01-16T15:44:14;1.00;58.70
75769;DHT22;64379;48.888;8.330;2024-01-16T15:46:58;0.80;58.90